Cromford, United Kingdom
Current Conditions -  °F | °C
As of 3:20 AM on Tuesday 23 Dec 2014 (Local Time) from EGNX Reporting Station
Broken Clouds Broken Clouds  
Wind Chill: 52°   Ceiling: 2200
Heat Index: 52°   Visibility: 6mi
Dew Point: 46°   Wind: 26mph
Humidity: 82%   Direction: 240°WSW
Pressure: 29.88"   Gusts: NA
Location:  53.11°N, 1.56°W
Report Text: EGNX 230320Z 24023KT 9999 BKN022 11/08 Q1012
Loading
Personal Weather Stations






























Interactive Weather Map New forecast layout! Learn more

10-Day Weather Forecast

Advertisements
Track Severe Weather on mobile